sensor_id;sensor_type;location;lat;lon;timestamp;temperature;humidity
46440;DHT22;32138;50.966;6.968;2023-04-25T00:00:28;10.40;97.00
46440;DHT22;32138;50.966;6.968;2023-04-25T00:01:29;10.40;96.60
46440;DHT22;32138;50.966;6.968;2023-04-25T00:02:30;10.40;96.30
46440;DHT22;32138;50.966;6.968;2023-04-25T00:03:32;10.30;96.50
46440;DHT22;32138;50.966;6.968;2023-04-25T00:04:33;10.40;96.70
46440;DHT22;32138;50.966;6.968;2023-04-25T00:05:34;10.40;96.40
46440;DHT22;32138;50.966;6.968;2023-04-25T00:06:37;10.40;96.50
46440;DHT22;32138;50.966;6.968;2023-04-25T00:07:38;10.50;96.60
46440;DHT22;32138;50.966;6.968;2023-04-25T00:08:39;10.50;96.30
46440;DHT22;32138;50.966;6.968;2023-04-25T00:09:41;10.40;96.20
46440;DHT22;32138;50.966;6.968;2023-04-25T00:10:42;10.40;96.30
46440;DHT22;32138;50.966;6.968;2023-04-25T00:11:43;10.50;96.40
46440;DHT22;32138;50.966;6.968;2023-04-25T00:12:44;10.40;96.70
46440;DHT22;32138;50.966;6.968;2023-04-25T00:13:45;10.40;96.40
46440;DHT22;32138;50.966;6.968;2023-04-25T00:14:46;10.40;96.40
46440;DHT22;32138;50.966;6.968;2023-04-25T00:15:47;10.40;96.50
46440;DHT22;32138;50.966;6.968;2023-04-25T00:16:48;10.50;96.40
46440;DHT22;32138;50.966;6.968;2023-04-25T00:17:52;10.40;96.30
46440;DHT22;32138;50.966;6.968;2023-04-25T00:18:53;10.50;96.40
46440;DHT22;32138;50.966;6.968;2023-04-25T00:19:54;10.50;96.30
46440;DHT22;32138;50.966;6.968;2023-04-25T00:20:55;10.40;96.10
46440;DHT22;32138;50.966;6.968;2023-04-25T00:21:56;10.40;96.40
46440;DHT22;32138;50.966;6.968;2023-04-25T00:22:57;10.30;96.30
46440;DHT22;32138;50.966;6.968;2023-04-25T00:23:57;10.40;96.50
46440;DHT22;32138;50.966;6.968;2023-04-25T00:24:58;10.40;96.80
46440;DHT22;32138;50.966;6.968;2023-04-25T00:26:00;10.40;96.40
46440;DHT22;32138;50.966;6.968;2023-04-25T00:27:01;10.40;96.50
46440;DHT22;32138;50.966;6.968;2023-04-25T00:28:02;10.50;96.50
46440;DHT22;32138;50.966;6.968;2023-04-25T00:29:02;10.40;96.40
46440;DHT22;32138;50.966;6.968;2023-04-25T00:30:04;10.40;96.60
46440;DHT22;32138;50.966;6.968;2023-04-25T00:31:05;10.30;96.70
46440;DHT22;32138;50.966;6.968;2023-04-25T00:32:05;10.30;96.80
46440;DHT22;32138;50.966;6.968;2023-04-25T00:33:07;10.20;96.90
46440;DHT22;32138;50.966;6.968;2023-04-25T00:34:08;10.10;97.00
46440;DHT22;32138;50.966;6.968;2023-04-25T00:35:09;10.20;97.10
46440;DHT22;32138;50.966;6.968;2023-04-25T00:36:10;10.20;97.00
46440;DHT22;32138;50.966;6.968;2023-04-25T00:37:11;10.30;96.80
46440;DHT22;32138;50.966;6.968;2023-04-25T00:38:13;10.30;96.60
46440;DHT22;32138;50.966;6.968;2023-04-25T00:39:13;10.30;96.60
46440;DHT22;32138;50.966;6.968;2023-04-25T00:40:14;10.40;96.60
46440;DHT22;32138;50.966;6.968;2023-04-25T00:41:15;10.40;96.50
46440;DHT22;32138;50.966;6.968;2023-04-25T00:42:16;10.40;96.60
46440;DHT22;32138;50.966;6.968;2023-04-25T00:43:17;10.40;96.70
46440;DHT22;32138;50.966;6.968;2023-04-25T00:44:17;10.40;96.60
46440;DHT22;32138;50.966;6.968;2023-04-25T00:45:19;10.40;96.80
46440;DHT22;32138;50.966;6.968;2023-04-25T00:46:20;10.20;97.00
46440;DHT22;32138;50.966;6.968;2023-04-25T00:47:20;10.30;96.90
46440;DHT22;32138;50.966;6.968;2023-04-25T00:48:22;10.20;96.40
46440;DHT22;32138;50.966;6.968;2023-04-25T00:49:23;10.30;96.70
46440;DHT22;32138;50.966;6.968;2023-04-25T00:50:24;10.30;96.60
46440;DHT22;32138;50.966;6.968;2023-04-25T00:51:26;10.20;96.70
46440;DHT22;32138;50.966;6.968;2023-04-25T00:52:27;10.10;96.90
46440;DHT22;32138;50.966;6.968;2023-04-25T00:53:28;10.20;96.90
46440;DHT22;32138;50.966;6.968;2023-04-25T00:54:30;10.20;97.20
46440;DHT22;32138;50.966;6.968;2023-04-25T00:55:31;10.20;96.80
46440;DHT22;32138;50.966;6.968;2023-04-25T00:56:32;10.20;96.90
46440;DHT22;32138;50.966;6.968;2023-04-25T00:57:34;10.20;96.70
46440;DHT22;32138;50.966;6.968;2023-04-25T00:58:35;10.20;96.70
46440;DHT22;32138;50.966;6.968;2023-04-25T00:59:37;10.20;96.70
46440;DHT22;32138;50.966;6.968;2023-04-25T01:00:39;10.20;97.00
46440;DHT22;32138;50.966;6.968;2023-04-25T01:01:41;10.30;96.80
46440;DHT22;32138;50.966;6.968;2023-04-25T01:02:43;10.20;96.80
46440;DHT22;32138;50.966;6.968;2023-04-25T01:03:46;10.20;96.70
46440;DHT22;32138;50.966;6.968;2023-04-25T01:04:47;10.20;96.70
46440;DHT22;32138;50.966;6.968;2023-04-25T01:05:48;10.20;96.70
46440;DHT22;32138;50.966;6.968;2023-04-25T01:06:51;10.20;96.90
46440;DHT22;32138;50.966;6.968;2023-04-25T01:07:52;10.20;96.80
46440;DHT22;32138;50.966;6.968;2023-04-25T01:08:53;10.10;96.70
46440;DHT22;32138;50.966;6.968;2023-04-25T01:09:54;10.10;96.80
46440;DHT22;32138;50.966;6.968;2023-04-25T01:10:54;10.10;96.80
46440;DHT22;32138;50.966;6.968;2023-04-25T01:11:55;10.10;96.80
46440;DHT22;32138;50.966;6.968;2023-04-25T01:12:58;10.10;96.70
46440;DHT22;32138;50.966;6.968;2023-04-25T01:13:58;10.10;96.80
46440;DHT22;32138;50.966;6.968;2023-04-25T01:14:59;10.10;96.60
46440;DHT22;32138;50.966;6.968;2023-04-25T01:16:01;10.10;96.70
46440;DHT22;32138;50.966;6.968;2023-04-25T01:17:02;10.00;96.80
46440;DHT22;32138;50.966;6.968;2023-04-25T01:18:05;10.00;96.80
46440;DHT22;32138;50.966;6.968;2023-04-25T01:19:10;10.10;96.80
46440;DHT22;32138;50.966;6.968;2023-04-25T01:20:14;10.00;96.80
46440;DHT22;32138;50.966;6.968;2023-04-25T01:21:15;10.00;96.90
46440;DHT22;32138;50.966;6.968;2023-04-25T01:22:16;10.10;96.90
46440;DHT22;32138;50.966;6.968;2023-04-25T01:23:18;10.00;97.00
46440;DHT22;32138;50.966;6.968;2023-04-25T01:24:20;9.80;97.20
46440;DHT22;32138;50.966;6.968;2023-04-25T01:25:22;9.70;97.60
46440;DHT22;32138;50.966;6.968;2023-04-25T01:26:24;9.80;97.60
46440;DHT22;32138;50.966;6.968;2023-04-25T01:27:25;9.80;97.40
46440;DHT22;32138;50.966;6.968;2023-04-25T01:28:27;9.90;97.30
46440;DHT22;32138;50.966;6.968;2023-04-25T01:29:28;9.90;97.20
46440;DHT22;32138;50.966;6.968;2023-04-25T01:30:29;9.90;97.20
46440;DHT22;32138;50.966;6.968;2023-04-25T01:31:32;10.00;97.30
46440;DHT22;32138;50.966;6.968;2023-04-25T01:32:33;9.80;97.10
46440;DHT22;32138;50.966;6.968;2023-04-25T01:33:40;9.90;97.30
46440;DHT22;32138;50.966;6.968;2023-04-25T01:34:40;9.90;97.20
46440;DHT22;32138;50.966;6.968;2023-04-25T01:35:41;9.90;97.40
46440;DHT22;32138;50.966;6.968;2023-04-25T01:36:42;9.80;97.40
46440;DHT22;32138;50.966;6.968;2023-04-25T01:37:44;9.80;97.60
46440;DHT22;32138;50.966;6.968;2023-04-25T01:38:45;9.90;97.50
46440;DHT22;32138;50.966;6.968;2023-04-25T01:39:47;9.90;97.50
46440;DHT22;32138;50.966;6.968;2023-04-25T01:40:51;9.90;97.40
46440;DHT22;32138;50.966;6.968;2023-04-25T01:41:52;9.90;97.40
46440;DHT22;32138;50.966;6.968;2023-04-25T01:42:53;9.80;97.40
46440;DHT22;32138;50.966;6.968;2023-04-25T01:43:54;9.80;97.50
46440;DHT22;32138;50.966;6.968;2023-04-25T01:44:55;9.70;97.70
46440;DHT22;32138;50.966;6.968;2023-04-25T01:45:56;9.70;97.70
46440;DHT22;32138;50.966;6.968;2023-04-25T01:46:57;9.60;97.80
46440;DHT22;32138;50.966;6.968;2023-04-25T01:47:58;9.60;98.00
46440;DHT22;32138;50.966;6.968;2023-04-25T01:49:00;9.60;98.20
46440;DHT22;32138;50.966;6.968;2023-04-25T01:50:01;9.60;98.10
46440;DHT22;32138;50.966;6.968;2023-04-25T01:51:03;9.60;98.20
46440;DHT22;32138;50.966;6.968;2023-04-25T01:52:04;9.60;98.10
46440;DHT22;32138;50.966;6.968;2023-04-25T01:53:05;9.50;98.20
46440;DHT22;32138;50.966;6.968;2023-04-25T01:54:07;9.60;98.20
46440;DHT22;32138;50.966;6.968;2023-04-25T01:55:09;9.60;97.90
46440;DHT22;32138;50.966;6.968;2023-04-25T01:56:10;9.50;98.00
46440;DHT22;32138;50.966;6.968;2023-04-25T01:57:13;9.40;98.30
46440;DHT22;32138;50.966;6.968;2023-04-25T01:58:14;9.40;98.20
46440;DHT22;32138;50.966;6.968;2023-04-25T01:59:15;9.50;98.30
46440;DHT22;32138;50.966;6.968;2023-04-25T02:00:16;9.50;98.10
46440;DHT22;32138;50.966;6.968;2023-04-25T02:01:17;9.40;98.40
46440;DHT22;32138;50.966;6.968;2023-04-25T02:02:18;9.40;98.40
46440;DHT22;32138;50.966;6.968;2023-04-25T02:03:18;9.40;98.40
46440;DHT22;32138;50.966;6.968;2023-04-25T02:04:19;9.40;98.40
46440;DHT22;32138;50.966;6.968;2023-04-25T02:05:20;9.30;98.50
46440;DHT22;32138;50.966;6.968;2023-04-25T02:06:21;9.30;98.50
46440;DHT22;32138;50.966;6.968;2023-04-25T02:07:22;9.50;98.30
46440;DHT22;32138;50.966;6.968;2023-04-25T02:08:22;9.30;98.20
46440;DHT22;32138;50.966;6.968;2023-04-25T02:09:23;9.20;98.50
46440;DHT22;32138;50.966;6.968;2023-04-25T02:10:24;9.20;98.40
46440;DHT22;32138;50.966;6.968;2023-04-25T02:11:24;9.20;98.60
46440;DHT22;32138;50.966;6.968;2023-04-25T02:12:27;9.20;98.60
46440;DHT22;32138;50.966;6.968;2023-04-25T02:13:28;9.20;98.70
46440;DHT22;32138;50.966;6.968;2023-04-25T02:14:29;9.20;98.70
46440;DHT22;32138;50.966;6.968;2023-04-25T02:15:29;9.30;98.90
46440;DHT22;32138;50.966;6.968;2023-04-25T02:16:30;9.30;98.80
46440;DHT22;32138;50.966;6.968;2023-04-25T02:17:31;9.40;98.70
46440;DHT22;32138;50.966;6.968;2023-04-25T02:18:32;9.40;98.50
46440;DHT22;32138;50.966;6.968;2023-04-25T02:19:33;9.40;98.50
46440;DHT22;32138;50.966;6.968;2023-04-25T02:20:34;9.40;98.50
46440;DHT22;32138;50.966;6.968;2023-04-25T02:21:35;9.40;98.70
46440;DHT22;32138;50.966;6.968;2023-04-25T02:22:36;9.20;98.60
46440;DHT22;32138;50.966;6.968;2023-04-25T02:23:37;9.30;98.60
46440;DHT22;32138;50.966;6.968;2023-04-25T02:24:38;9.40;98.50
46440;DHT22;32138;50.966;6.968;2023-04-25T02:25:39;9.50;98.30
46440;DHT22;32138;50.966;6.968;2023-04-25T02:26:40;9.50;98.20
46440;DHT22;32138;50.966;6.968;2023-04-25T02:27:40;9.50;98.10
46440;DHT22;32138;50.966;6.968;2023-04-25T02:28:41;9.50;98.10
46440;DHT22;32138;50.966;6.968;2023-04-25T02:29:42;9.50;98.10
46440;DHT22;32138;50.966;6.968;2023-04-25T02:30:43;9.50;98.10
46440;DHT22;32138;50.966;6.968;2023-04-25T02:31:43;9.40;98.30
46440;DHT22;32138;50.966;6.968;2023-04-25T02:32:44;9.40;98.40
46440;DHT22;32138;50.966;6.968;2023-04-25T02:33:45;9.20;98.50
46440;DHT22;32138;50.966;6.968;2023-04-25T02:34:46;9.20;98.80
46440;DHT22;32138;50.966;6.968;2023-04-25T02:35:48;9.20;98.60
46440;DHT22;32138;50.966;6.968;2023-04-25T02:36:49;9.30;98.60
46440;DHT22;32138;50.966;6.968;2023-04-25T02:37:52;9.30;98.70
46440;DHT22;32138;50.966;6.968;2023-04-25T02:38:53;9.30;98.50
46440;DHT22;32138;50.966;6.968;2023-04-25T02:39:53;9.40;98.30
46440;DHT22;32138;50.966;6.968;2023-04-25T02:40:54;9.40;98.30
46440;DHT22;32138;50.966;6.968;2023-04-25T02:41:55;9.40;98.20
46440;DHT22;32138;50.966;6.968;2023-04-25T02:42:56;9.40;97.90
46440;DHT22;32138;50.966;6.968;2023-04-25T02:43:56;9.30;98.00
46440;DHT22;32138;50.966;6.968;2023-04-25T02:44:57;9.20;98.10
46440;DHT22;32138;50.966;6.968;2023-04-25T02:45:58;9.30;98.20
46440;DHT22;32138;50.966;6.968;2023-04-25T02:46:59;9.30;98.20
46440;DHT22;32138;50.966;6.968;2023-04-25T02:47:59;9.40;98.00
46440;DHT22;32138;50.966;6.968;2023-04-25T02:49:00;9.30;98.00
46440;DHT22;32138;50.966;6.968;2023-04-25T02:50:01;9.30;98.20
46440;DHT22;32138;50.966;6.968;2023-04-25T02:51:02;9.30;98.30
46440;DHT22;32138;50.966;6.968;2023-04-25T02:52:02;9.30;98.10
46440;DHT22;32138;50.966;6.968;2023-04-25T02:53:03;9.20;98.20
46440;DHT22;32138;50.966;6.968;2023-04-25T02:54:04;9.10;98.30
46440;DHT22;32138;50.966;6.968;2023-04-25T02:55:07;9.10;98.50
46440;DHT22;32138;50.966;6.968;2023-04-25T02:56:08;9.20;98.50
46440;DHT22;32138;50.966;6.968;2023-04-25T02:57:08;9.20;98.40
46440;DHT22;32138;50.966;6.968;2023-04-25T02:58:09;9.30;98.40
46440;DHT22;32138;50.966;6.968;2023-04-25T02:59:10;9.30;98.30
46440;DHT22;32138;50.966;6.968;2023-04-25T03:00:11;9.30;98.30
46440;DHT22;32138;50.966;6.968;2023-04-25T03:01:14;9.30;98.30
46440;DHT22;32138;50.966;6.968;2023-04-25T03:02:15;9.30;98.20
46440;DHT22;32138;50.966;6.968;2023-04-25T03:03:16;9.40;98.30
46440;DHT22;32138;50.966;6.968;2023-04-25T03:04:21;9.40;98.10
46440;DHT22;32138;50.966;6.968;2023-04-25T03:05:24;9.30;98.10
46440;DHT22;32138;50.966;6.968;2023-04-25T03:06:24;9.30;98.20
46440;DHT22;32138;50.966;6.968;2023-04-25T03:07:25;9.40;98.20
46440;DHT22;32138;50.966;6.968;2023-04-25T03:08:26;9.40;98.20
46440;DHT22;32138;50.966;6.968;2023-04-25T03:09:31;9.50;98.10
46440;DHT22;32138;50.966;6.968;2023-04-25T03:10:32;9.50;97.90
46440;DHT22;32138;50.966;6.968;2023-04-25T03:11:32;9.50;97.90
46440;DHT22;32138;50.966;6.968;2023-04-25T03:12:33;9.50;98.00
46440;DHT22;32138;50.966;6.968;2023-04-25T03:13:34;9.50;97.90
46440;DHT22;32138;50.966;6.968;2023-04-25T03:14:34;9.60;98.10
46440;DHT22;32138;50.966;6.968;2023-04-25T03:15:36;9.60;98.10
46440;DHT22;32138;50.966;6.968;2023-04-25T03:16:37;9.60;98.00
46440;DHT22;32138;50.966;6.968;2023-04-25T03:17:38;9.70;98.00
46440;DHT22;32138;50.966;6.968;2023-04-25T03:18:39;9.70;98.00
46440;DHT22;32138;50.966;6.968;2023-04-25T03:19:39;9.60;98.00
46440;DHT22;32138;50.966;6.968;2023-04-25T03:20:40;9.70;98.20
46440;DHT22;32138;50.966;6.968;2023-04-25T03:21:42;9.70;98.20
46440;DHT22;32138;50.966;6.968;2023-04-25T03:22:43;9.70;98.20
46440;DHT22;32138;50.966;6.968;2023-04-25T03:23:44;9.70;98.20
46440;DHT22;32138;50.966;6.968;2023-04-25T03:24:45;9.60;98.10
46440;DHT22;32138;50.966;6.968;2023-04-25T03:25:47;9.60;98.10
46440;DHT22;32138;50.966;6.968;2023-04-25T03:26:48;9.50;98.20
46440;DHT22;32138;50.966;6.968;2023-04-25T03:27:48;9.50;98.40
46440;DHT22;32138;50.966;6.968;2023-04-25T03:28:49;9.30;98.60
46440;DHT22;32138;50.966;6.968;2023-04-25T03:29:50;9.20;99.10
46440;DHT22;32138;50.966;6.968;2023-04-25T03:30:51;9.30;99.00
46440;DHT22;32138;50.966;6.968;2023-04-25T03:31:51;9.20;98.90
46440;DHT22;32138;50.966;6.968;2023-04-25T03:32:52;9.20;99.10
46440;DHT22;32138;50.966;6.968;2023-04-25T03:33:53;9.20;99.20
46440;DHT22;32138;50.966;6.968;2023-04-25T03:34:54;9.20;99.20
46440;DHT22;32138;50.966;6.968;2023-04-25T03:35:55;9.10;99.50
46440;DHT22;32138;50.966;6.968;2023-04-25T03:36:56;9.20;99.50
46440;DHT22;32138;50.966;6.968;2023-04-25T03:37:56;9.30;99.30
46440;DHT22;32138;50.966;6.968;2023-04-25T03:38:57;9.40;99.40
46440;DHT22;32138;50.966;6.968;2023-04-25T03:39:58;9.50;99.10
46440;DHT22;32138;50.966;6.968;2023-04-25T03:40:59;9.60;99.00
46440;DHT22;32138;50.966;6.968;2023-04-25T03:42:00;9.50;98.90
46440;DHT22;32138;50.966;6.968;2023-04-25T03:43:03;9.50;99.10
46440;DHT22;32138;50.966;6.968;2023-04-25T03:44:03;9.50;99.00
46440;DHT22;32138;50.966;6.968;2023-04-25T03:45:05;9.60;99.10
46440;DHT22;32138;50.966;6.968;2023-04-25T03:46:06;9.70;98.90
46440;DHT22;32138;50.966;6.968;2023-04-25T03:47:07;9.70;98.90
46440;DHT22;32138;50.966;6.968;2023-04-25T03:48:08;9.70;98.80
46440;DHT22;32138;50.966;6.968;2023-04-25T03:49:08;9.70;98.90
46440;DHT22;32138;50.966;6.968;2023-04-25T03:50:09;9.70;98.80
46440;DHT22;32138;50.966;6.968;2023-04-25T03:51:10;9.60;98.90
46440;DHT22;32138;50.966;6.968;2023-04-25T03:52:11;9.50;99.00
46440;DHT22;32138;50.966;6.968;2023-04-25T03:53:12;9.50;99.20
46440;DHT22;32138;50.966;6.968;2023-04-25T03:54:12;9.50;99.30
46440;DHT22;32138;50.966;6.968;2023-04-25T03:55:13;9.50;99.20
46440;DHT22;32138;50.966;6.968;2023-04-25T03:56:14;9.50;99.20
46440;DHT22;32138;50.966;6.968;2023-04-25T03:57:14;9.40;99.30
46440;DHT22;32138;50.966;6.968;2023-04-25T03:58:15;9.50;99.20
46440;DHT22;32138;50.966;6.968;2023-04-25T03:59:16;9.50;99.40
46440;DHT22;32138;50.966;6.968;2023-04-25T04:00:17;9.50;99.60
46440;DHT22;32138;50.966;6.968;2023-04-25T04:01:18;9.50;99.50
46440;DHT22;32138;50.966;6.968;2023-04-25T04:02:18;9.40;99.40
46440;DHT22;32138;50.966;6.968;2023-04-25T04:03:19;9.30;99.60
46440;DHT22;32138;50.966;6.968;2023-04-25T04:04:20;9.30;99.60
46440;DHT22;32138;50.966;6.968;2023-04-25T04:05:21;9.40;99.60
46440;DHT22;32138;50.966;6.968;2023-04-25T04:06:22;9.40;99.70
46440;DHT22;32138;50.966;6.968;2023-04-25T04:07:23;9.30;99.70
46440;DHT22;32138;50.966;6.968;2023-04-25T04:08:24;9.30;99.80
46440;DHT22;32138;50.966;6.968;2023-04-25T04:09:25;9.40;99.80
46440;DHT22;32138;50.966;6.968;2023-04-25T04:10:26;9.30;99.80
46440;DHT22;32138;50.966;6.968;2023-04-25T04:11:26;9.30;99.80
46440;DHT22;32138;50.966;6.968;2023-04-25T04:12:27;9.30;99.90
46440;DHT22;32138;50.966;6.968;2023-04-25T04:13:29;9.30;99.90
46440;DHT22;32138;50.966;6.968;2023-04-25T04:14:30;9.40;99.90
46440;DHT22;32138;50.966;6.968;2023-04-25T04:15:30;9.40;99.80
46440;DHT22;32138;50.966;6.968;2023-04-25T04:16:33;9.40;99.70
46440;DHT22;32138;50.966;6.968;2023-04-25T04:17:34;9.50;99.80
46440;DHT22;32138;50.966;6.968;2023-04-25T04:18:35;9.40;99.60
46440;DHT22;32138;50.966;6.968;2023-04-25T04:19:36;9.40;99.90
46440;DHT22;32138;50.966;6.968;2023-04-25T04:20:36;9.40;99.90
46440;DHT22;32138;50.966;6.968;2023-04-25T04:21:37;9.50;99.90
46440;DHT22;32138;50.966;6.968;2023-04-25T04:22:38;9.50;99.80
46440;DHT22;32138;50.966;6.968;2023-04-25T04:23:39;9.50;99.80
46440;DHT22;32138;50.966;6.968;2023-04-25T04:24:40;9.40;99.90
46440;DHT22;32138;50.966;6.968;2023-04-25T04:25:40;9.40;99.90
46440;DHT22;32138;50.966;6.968;2023-04-25T04:26:42;9.50;99.90
46440;DHT22;32138;50.966;6.968;2023-04-25T04:27:45;9.40;99.80
46440;DHT22;32138;50.966;6.968;2023-04-25T04:28:46;9.40;99.90
46440;DHT22;32138;50.966;6.968;2023-04-25T04:29:47;9.40;99.90
46440;DHT22;32138;50.966;6.968;2023-04-25T04:30:48;9.30;99.90
46440;DHT22;32138;50.966;6.968;2023-04-25T04:31:51;9.30;99.90
46440;DHT22;32138;50.966;6.968;2023-04-25T04:32:52;9.30;99.90
46440;DHT22;32138;50.966;6.968;2023-04-25T04:33:53;9.20;99.90
46440;DHT22;32138;50.966;6.968;2023-04-25T04:34:54;9.20;99.90
46440;DHT22;32138;50.966;6.968;2023-04-25T04:35:55;9.30;99.90
46440;DHT22;32138;50.966;6.968;2023-04-25T04:36:57;9.30;99.90
46440;DHT22;32138;50.966;6.968;2023-04-25T04:37:57;9.30;99.90
46440;DHT22;32138;50.966;6.968;2023-04-25T04:38:58;9.30;99.90
46440;DHT22;32138;50.966;6.968;2023-04-25T04:39:59;9.40;99.90
46440;DHT22;32138;50.966;6.968;2023-04-25T04:41:00;9.30;99.90
46440;DHT22;32138;50.966;6.968;2023-04-25T04:42:00;9.20;99.90
46440;DHT22;32138;50.966;6.968;2023-04-25T04:43:05;9.30;99.90
46440;DHT22;32138;50.966;6.968;2023-04-25T04:44:06;9.40;99.90
46440;DHT22;32138;50.966;6.968;2023-04-25T04:45:10;9.50;99.90
46440;DHT22;32138;50.966;6.968;2023-04-25T04:46:11;9.50;99.90
46440;DHT22;32138;50.966;6.968;2023-04-25T04:47:13;9.40;99.90
46440;DHT22;32138;50.966;6.968;2023-04-25T04:48:14;9.40;99.90
46440;DHT22;32138;50.966;6.968;2023-04-25T04:49:15;9.40;99.90
46440;DHT22;32138;50.966;6.968;2023-04-25T04:50:16;9.40;99.90
46440;DHT22;32138;50.966;6.968;2023-04-25T04:51:16;9.30;99.90
46440;DHT22;32138;50.966;6.968;2023-04-25T04:52:17;9.30;99.90
46440;DHT22;32138;50.966;6.968;2023-04-25T04:53:18;9.40;99.90
46440;DHT22;32138;50.966;6.968;2023-04-25T04:54:19;9.50;99.90
46440;DHT22;32138;50.966;6.968;2023-04-25T04:55:20;9.60;99.90
46440;DHT22;32138;50.966;6.968;2023-04-25T04:56:21;9.60;99.90
46440;DHT22;32138;50.966;6.968;2023-04-25T04:57:23;9.60;99.90
46440;DHT22;32138;50.966;6.968;2023-04-25T04:58:25;9.50;99.90
46440;DHT22;32138;50.966;6.968;2023-04-25T04:59:25;9.50;99.90
46440;DHT22;32138;50.966;6.968;2023-04-25T05:00:26;9.60;99.90
46440;DHT22;32138;50.966;6.968;2023-04-25T05:01:28;9.60;99.90
46440;DHT22;32138;50.966;6.968;2023-04-25T05:02:30;9.60;99.90
46440;DHT22;32138;50.966;6.968;2023-04-25T05:03:31;9.60;99.90
46440;DHT22;32138;50.966;6.968;2023-04-25T05:04:31;9.60;99.90
46440;DHT22;32138;50.966;6.968;2023-04-25T05:05:32;9.40;99.90
46440;DHT22;32138;50.966;6.968;2023-04-25T05:06:33;9.50;99.90
46440;DHT22;32138;50.966;6.968;2023-04-25T05:07:34;9.60;99.90
46440;DHT22;32138;50.966;6.968;2023-04-25T05:08:35;9.50;99.90
46440;DHT22;32138;50.966;6.968;2023-04-25T05:09:35;9.50;99.90
46440;DHT22;32138;50.966;6.968;2023-04-25T05:10:36;9.50;99.90
46440;DHT22;32138;50.966;6.968;2023-04-25T05:11:37;9.50;99.90
46440;DHT22;32138;50.966;6.968;2023-04-25T05:12:38;9.60;99.90
46440;DHT22;32138;50.966;6.968;2023-04-25T05:13:38;9.50;99.90
46440;DHT22;32138;50.966;6.968;2023-04-25T05:14:39;9.50;99.90
46440;DHT22;32138;50.966;6.968;2023-04-25T05:15:40;9.50;99.90
46440;DHT22;32138;50.966;6.968;2023-04-25T05:16:41;9.60;99.90
46440;DHT22;32138;50.966;6.968;2023-04-25T05:17:42;9.60;99.90
46440;DHT22;32138;50.966;6.968;2023-04-25T05:18:43;9.50;99.90
46440;DHT22;32138;50.966;6.968;2023-04-25T05:19:44;9.50;99.90
46440;DHT22;32138;50.966;6.968;2023-04-25T05:20:45;9.50;99.90
46440;DHT22;32138;50.966;6.968;2023-04-25T05:21:46;9.40;99.90
46440;DHT22;32138;50.966;6.968;2023-04-25T05:22:46;9.50;99.90
46440;DHT22;32138;50.966;6.968;2023-04-25T05:23:47;9.60;99.90
46440;DHT22;32138;50.966;6.968;2023-04-25T05:24:48;9.60;99.90
46440;DHT22;32138;50.966;6.968;2023-04-25T05:25:48;9.60;99.90
46440;DHT22;32138;50.966;6.968;2023-04-25T05:26:49;9.60;99.90
46440;DHT22;32138;50.966;6.968;2023-04-25T05:27:50;9.60;99.90
46440;DHT22;32138;50.966;6.968;2023-04-25T05:28:52;9.60;99.90
46440;DHT22;32138;50.966;6.968;2023-04-25T05:29:53;9.70;99.90
46440;DHT22;32138;50.966;6.968;2023-04-25T05:30:54;9.70;99.90
46440;DHT22;32138;50.966;6.968;2023-04-25T05:31:55;9.70;99.90
46440;DHT22;32138;50.966;6.968;2023-04-25T05:32:55;9.70;99.90
46440;DHT22;32138;50.966;6.968;2023-04-25T05:33:56;9.70;99.90
46440;DHT22;32138;50.966;6.968;2023-04-25T05:34:57;9.70;99.90
46440;DHT22;32138;50.966;6.968;2023-04-25T05:35:57;9.60;99.90
46440;DHT22;32138;50.966;6.968;2023-04-25T05:36:58;9.60;99.90
46440;DHT22;32138;50.966;6.968;2023-04-25T05:37:59;9.70;99.90
46440;DHT22;32138;50.966;6.968;2023-04-25T05:39:00;9.60;99.90
46440;DHT22;32138;50.966;6.968;2023-04-25T05:40:02;9.60;99.90
46440;DHT22;32138;50.966;6.968;2023-04-25T05:41:07;9.60;99.90
46440;DHT22;32138;50.966;6.968;2023-04-25T05:42:07;9.60;99.90
46440;DHT22;32138;50.966;6.968;2023-04-25T05:43:08;9.60;99.90
46440;DHT22;32138;50.966;6.968;2023-04-25T05:44:09;9.70;99.90
46440;DHT22;32138;50.966;6.968;2023-04-25T05:45:10;9.70;99.90
46440;DHT22;32138;50.966;6.968;2023-04-25T05:46:11;9.50;99.90
46440;DHT22;32138;50.966;6.968;2023-04-25T05:47:12;9.60;99.90
46440;DHT22;32138;50.966;6.968;2023-04-25T05:48:12;9.70;99.90
46440;DHT22;32138;50.966;6.968;2023-04-25T05:49:13;9.70;99.90
46440;DHT22;32138;50.966;6.968;2023-04-25T05:50:14;9.70;99.90
46440;DHT22;32138;50.966;6.968;2023-04-25T05:51:14;9.70;99.90
46440;DHT22;32138;50.966;6.968;2023-04-25T05:52:16;9.60;99.90
46440;DHT22;32138;50.966;6.968;2023-04-25T05:53:18;9.70;99.90
46440;DHT22;32138;50.966;6.968;2023-04-25T05:54:19;9.70;99.90
46440;DHT22;32138;50.966;6.968;2023-04-25T05:55:20;9.70;99.90
46440;DHT22;32138;50.966;6.968;2023-04-25T05:56:21;9.70;99.90
46440;DHT22;32138;50.966;6.968;2023-04-25T05:57:25;9.80;99.90
46440;DHT22;32138;50.966;6.968;2023-04-25T05:58:27;9.90;99.90
46440;DHT22;32138;50.966;6.968;2023-04-25T05:59:27;10.00;99.90
46440;DHT22;32138;50.966;6.968;2023-04-25T06:00:28;9.90;99.90
46440;DHT22;32138;50.966;6.968;2023-04-25T06:01:29;10.00;99.90
46440;DHT22;32138;50.966;6.968;2023-04-25T06:02:30;9.90;99.70
46440;DHT22;32138;50.966;6.968;2023-04-25T06:03:31;9.70;99.90
46440;DHT22;32138;50.966;6.968;2023-04-25T06:04:31;9.80;99.80
46440;DHT22;32138;50.966;6.968;2023-04-25T06:05:32;9.80;99.70
46440;DHT22;32138;50.966;6.968;2023-04-25T06:06:33;9.80;99.80
46440;DHT22;32138;50.966;6.968;2023-04-25T06:07:33;9.90;99.70
46440;DHT22;32138;50.966;6.968;2023-04-25T06:08:34;10.00;99.70
46440;DHT22;32138;50.966;6.968;2023-04-25T06:09:35;9.90;99.30
46440;DHT22;32138;50.966;6.968;2023-04-25T06:10:36;9.90;99.60
46440;DHT22;32138;50.966;6.968;2023-04-25T06:11:37;10.00;99.50
46440;DHT22;32138;50.966;6.968;2023-04-25T06:12:38;10.00;99.60
46440;DHT22;32138;50.966;6.968;2023-04-25T06:13:39;10.00;99.10
46440;DHT22;32138;50.966;6.968;2023-04-25T06:14:40;10.00;99.00
46440;DHT22;32138;50.966;6.968;2023-04-25T06:15:41;10.00;99.30
46440;DHT22;32138;50.966;6.968;2023-04-25T06:16:42;10.00;98.90
46440;DHT22;32138;50.966;6.968;2023-04-25T06:17:43;10.10;99.20
46440;DHT22;32138;50.966;6.968;2023-04-25T06:18:43;10.00;99.10
46440;DHT22;32138;50.966;6.968;2023-04-25T06:19:44;10.10;99.10
46440;DHT22;32138;50.966;6.968;2023-04-25T06:20:45;10.10;99.30
46440;DHT22;32138;50.966;6.968;2023-04-25T06:21:46;10.20;99.40
46440;DHT22;32138;50.966;6.968;2023-04-25T06:22:46;10.30;98.80
46440;DHT22;32138;50.966;6.968;2023-04-25T06:23:47;10.30;98.50
46440;DHT22;32138;50.966;6.968;2023-04-25T06:24:48;10.30;98.30
46440;DHT22;32138;50.966;6.968;2023-04-25T06:25:48;10.20;98.40
46440;DHT22;32138;50.966;6.968;2023-04-25T06:26:49;10.30;98.70
46440;DHT22;32138;50.966;6.968;2023-04-25T06:27:51;10.40;98.90
46440;DHT22;32138;50.966;6.968;2023-04-25T06:28:52;10.50;98.70
46440;DHT22;32138;50.966;6.968;2023-04-25T06:29:52;10.50;98.70
46440;DHT22;32138;50.966;6.968;2023-04-25T06:30:53;10.40;98.30